sensor_id;sensor_type;location;lat;lon;timestamp;temperature;humidity
44573;DHT22;31762;45.420;10.072;2022-10-31T00:03:22;14.80;99.90
44573;DHT22;31762;45.420;10.072;2022-10-31T00:08:24;15.00;99.90
44573;DHT22;31762;45.420;10.072;2022-10-31T00:13:26;14.90;99.90
44573;DHT22;31762;45.420;10.072;2022-10-31T00:18:28;15.20;99.90
44573;DHT22;31762;45.420;10.072;2022-10-31T00:23:29;14.90;99.90
44573;DHT22;31762;45.420;10.072;2022-10-31T00:28:31;15.10;99.90
44573;DHT22;31762;45.420;10.072;2022-10-31T00:33:34;15.00;99.90
44573;DHT22;31762;45.420;10.072;2022-10-31T00:38:36;14.90;99.90
44573;DHT22;31762;45.420;10.072;2022-10-31T00:43:38;15.00;99.90
44573;DHT22;31762;45.420;10.072;2022-10-31T00:48:40;14.90;99.90
44573;DHT22;31762;45.420;10.072;2022-10-31T00:53:42;14.80;99.90
44573;DHT22;31762;45.420;10.072;2022-10-31T00:58:44;14.80;99.90
44573;DHT22;31762;45.420;10.072;2022-10-31T01:03:45;14.70;99.90
44573;DHT22;31762;45.420;10.072;2022-10-31T01:08:47;14.80;99.90
44573;DHT22;31762;45.420;10.072;2022-10-31T01:13:53;14.50;99.90
44573;DHT22;31762;45.420;10.072;2022-10-31T01:18:55;14.50;99.90
44573;DHT22;31762;45.420;10.072;2022-10-31T01:23:57;14.50;99.90
44573;DHT22;31762;45.420;10.072;2022-10-31T01:29:07;15.10;99.90
44573;DHT22;31762;45.420;10.072;2022-10-31T01:34:13;14.90;99.90
44573;DHT22;31762;45.420;10.072;2022-10-31T01:39:15;15.10;99.90
44573;DHT22;31762;45.420;10.072;2022-10-31T01:49:28;15.10;99.90
44573;DHT22;31762;45.420;10.072;2022-10-31T01:54:36;15.00;99.90
44573;DHT22;31762;45.420;10.072;2022-10-31T01:59:43;14.90;99.90
44573;DHT22;31762;45.420;10.072;2022-10-31T02:04:47;14.80;99.90
44573;DHT22;31762;45.420;10.072;2022-10-31T02:09:49;14.20;99.90
44573;DHT22;31762;45.420;10.072;2022-10-31T02:14:51;14.60;99.90
44573;DHT22;31762;45.420;10.072;2022-10-31T02:20:27;14.40;99.90
44573;DHT22;31762;45.420;10.072;2022-10-31T02:31:57;13.90;99.90
44573;DHT22;31762;45.420;10.072;2022-10-31T02:37:14;13.80;99.90
44573;DHT22;31762;45.420;10.072;2022-10-31T02:47:29;14.10;99.90
44573;DHT22;31762;45.420;10.072;2022-10-31T02:52:34;13.90;99.90
44573;DHT22;31762;45.420;10.072;2022-10-31T02:57:37;14.30;99.90
44573;DHT22;31762;45.420;10.072;2022-10-31T03:03:06;14.00;99.90
44573;DHT22;31762;45.420;10.072;2022-10-31T03:08:26;14.10;99.90
44573;DHT22;31762;45.420;10.072;2022-10-31T03:19:05;14.20;99.90
44573;DHT22;31762;45.420;10.072;2022-10-31T03:24:09;14.10;99.90
44573;DHT22;31762;45.420;10.072;2022-10-31T03:29:15;14.00;99.90
44573;DHT22;31762;45.420;10.072;2022-10-31T03:34:19;14.50;99.90
44573;DHT22;31762;45.420;10.072;2022-10-31T03:39:22;14.20;99.90
44573;DHT22;31762;45.420;10.072;2022-10-31T03:44:27;14.20;99.90
44573;DHT22;31762;45.420;10.072;2022-10-31T03:49:31;14.00;99.90
44573;DHT22;31762;45.420;10.072;2022-10-31T03:54:42;14.10;99.90
44573;DHT22;31762;45.420;10.072;2022-10-31T03:59:48;13.80;99.90
44573;DHT22;31762;45.420;10.072;2022-10-31T04:04:52;13.70;99.90
44573;DHT22;31762;45.420;10.072;2022-10-31T04:09:54;13.90;99.90
44573;DHT22;31762;45.420;10.072;2022-10-31T04:14:57;13.70;99.90
44573;DHT22;31762;45.420;10.072;2022-10-31T04:20:01;13.80;99.90
44573;DHT22;31762;45.420;10.072;2022-10-31T04:25:03;14.00;99.90
44573;DHT22;31762;45.420;10.072;2022-10-31T04:30:05;14.20;99.90
44573;DHT22;31762;45.420;10.072;2022-10-31T04:35:07;13.90;99.90
44573;DHT22;31762;45.420;10.072;2022-10-31T04:40:09;13.70;99.90
44573;DHT22;31762;45.420;10.072;2022-10-31T04:45:11;13.70;99.90
44573;DHT22;31762;45.420;10.072;2022-10-31T04:50:19;13.80;99.90
44573;DHT22;31762;45.420;10.072;2022-10-31T04:55:20;13.70;99.90
44573;DHT22;31762;45.420;10.072;2022-10-31T05:00:23;13.60;99.90
44573;DHT22;31762;45.420;10.072;2022-10-31T05:05:30;13.50;99.90
44573;DHT22;31762;45.420;10.072;2022-10-31T05:10:32;13.30;99.90
44573;DHT22;31762;45.420;10.072;2022-10-31T05:15:34;13.20;99.90
44573;DHT22;31762;45.420;10.072;2022-10-31T05:20:35;13.20;99.90
44573;DHT22;31762;45.420;10.072;2022-10-31T05:25:37;13.10;99.90
44573;DHT22;31762;45.420;10.072;2022-10-31T05:30:39;13.40;99.90
44573;DHT22;31762;45.420;10.072;2022-10-31T05:35:40;13.40;99.90
44573;DHT22;31762;45.420;10.072;2022-10-31T05:40:42;12.90;99.90
44573;DHT22;31762;45.420;10.072;2022-10-31T05:45:44;12.80;99.90
44573;DHT22;31762;45.420;10.072;2022-10-31T05:50:47;12.90;99.90
44573;DHT22;31762;45.420;10.072;2022-10-31T05:55:49;13.10;99.90
44573;DHT22;31762;45.420;10.072;2022-10-31T06:00:51;12.70;99.90
44573;DHT22;31762;45.420;10.072;2022-10-31T06:05:52;13.00;99.90
44573;DHT22;31762;45.420;10.072;2022-10-31T06:10:56;12.90;99.90
44573;DHT22;31762;45.420;10.072;2022-10-31T06:15:57;12.90;99.90
44573;DHT22;31762;45.420;10.072;2022-10-31T06:20:59;12.90;99.90
44573;DHT22;31762;45.420;10.072;2022-10-31T06:26:01;13.20;99.90
44573;DHT22;31762;45.420;10.072;2022-10-31T06:31:02;13.40;99.90
44573;DHT22;31762;45.420;10.072;2022-10-31T06:36:04;13.50;99.90
44573;DHT22;31762;45.420;10.072;2022-10-31T06:41:06;13.40;99.90
44573;DHT22;31762;45.420;10.072;2022-10-31T06:46:08;13.90;99.90
44573;DHT22;31762;45.420;10.072;2022-10-31T06:51:10;14.00;99.90
44573;DHT22;31762;45.420;10.072;2022-10-31T06:56:11;13.80;99.90
44573;DHT22;31762;45.420;10.072;2022-10-31T07:01:13;13.50;99.90
44573;DHT22;31762;45.420;10.072;2022-10-31T07:06:15;13.50;99.90
44573;DHT22;31762;45.420;10.072;2022-10-31T07:11:17;13.70;99.90
44573;DHT22;31762;45.420;10.072;2022-10-31T07:16:19;14.10;99.90
44573;DHT22;31762;45.420;10.072;2022-10-31T07:21:20;14.10;99.90
44573;DHT22;31762;45.420;10.072;2022-10-31T07:26:22;14.60;99.90
44573;DHT22;31762;45.420;10.072;2022-10-31T07:31:24;14.90;99.90
44573;DHT22;31762;45.420;10.072;2022-10-31T07:36:26;15.00;99.90
44573;DHT22;31762;45.420;10.072;2022-10-31T07:41:27;15.10;99.90
44573;DHT22;31762;45.420;10.072;2022-10-31T07:46:29;14.90;99.90
44573;DHT22;31762;45.420;10.072;2022-10-31T07:51:31;15.10;99.90
44573;DHT22;31762;45.420;10.072;2022-10-31T07:56:32;15.00;99.90
44573;DHT22;31762;45.420;10.072;2022-10-31T08:01:34;15.20;99.90
44573;DHT22;31762;45.420;10.072;2022-10-31T08:06:36;15.40;99.90
44573;DHT22;31762;45.420;10.072;2022-10-31T08:11:37;15.50;99.90
44573;DHT22;31762;45.420;10.072;2022-10-31T08:16:39;15.70;99.90
44573;DHT22;31762;45.420;10.072;2022-10-31T08:21:41;16.20;99.90
44573;DHT22;31762;45.420;10.072;2022-10-31T08:26:42;16.40;99.90
44573;DHT22;31762;45.420;10.072;2022-10-31T08:31:44;16.50;99.90
44573;DHT22;31762;45.420;10.072;2022-10-31T08:36:46;16.60;99.90
44573;DHT22;31762;45.420;10.072;2022-10-31T08:41:47;17.00;99.90
44573;DHT22;31762;45.420;10.072;2022-10-31T08:46:49;17.20;99.90
44573;DHT22;31762;45.420;10.072;2022-10-31T08:51:51;17.30;99.90
44573;DHT22;31762;45.420;10.072;2022-10-31T08:56:56;17.50;99.90
44573;DHT22;31762;45.420;10.072;2022-10-31T09:01:57;17.60;99.90
44573;DHT22;31762;45.420;10.072;2022-10-31T09:06:59;17.70;99.90
44573;DHT22;31762;45.420;10.072;2022-10-31T09:12:21;18.00;99.90
44573;DHT22;31762;45.420;10.072;2022-10-31T09:17:23;18.20;99.90
44573;DHT22;31762;45.420;10.072;2022-10-31T09:22:24;18.60;99.90
44573;DHT22;31762;45.420;10.072;2022-10-31T09:27:27;18.90;99.90
44573;DHT22;31762;45.420;10.072;2022-10-31T09:32:28;19.40;99.90
44573;DHT22;31762;45.420;10.072;2022-10-31T09:37:30;19.60;99.90
44573;DHT22;31762;45.420;10.072;2022-10-31T09:48:01;19.80;99.90
44573;DHT22;31762;45.420;10.072;2022-10-31T09:53:13;20.00;99.90
44573;DHT22;31762;45.420;10.072;2022-10-31T09:58:19;20.30;99.90
44573;DHT22;31762;45.420;10.072;2022-10-31T10:03:44;20.10;99.90
44573;DHT22;31762;45.420;10.072;2022-10-31T10:08:47;20.40;99.90
44573;DHT22;31762;45.420;10.072;2022-10-31T10:19:16;20.70;99.90
44573;DHT22;31762;45.420;10.072;2022-10-31T10:30:32;20.60;99.90
44573;DHT22;31762;45.420;10.072;2022-10-31T10:35:31;20.80;99.90
44573;DHT22;31762;45.420;10.072;2022-10-31T10:40:34;21.30;99.90
44573;DHT22;31762;45.420;10.072;2022-10-31T10:45:37;21.70;99.90
44573;DHT22;31762;45.420;10.072;2022-10-31T10:50:46;22.20;99.90
44573;DHT22;31762;45.420;10.072;2022-10-31T10:56:16;22.00;99.90
44573;DHT22;31762;45.420;10.072;2022-10-31T11:01:18;22.30;99.90
44573;DHT22;31762;45.420;10.072;2022-10-31T11:06:22;22.40;99.90
44573;DHT22;31762;45.420;10.072;2022-10-31T11:11:29;22.20;99.90
44573;DHT22;31762;45.420;10.072;2022-10-31T11:16:40;23.00;99.90
44573;DHT22;31762;45.420;10.072;2022-10-31T11:21:43;23.60;99.90
44573;DHT22;31762;45.420;10.072;2022-10-31T11:26:51;23.40;99.90
44573;DHT22;31762;45.420;10.072;2022-10-31T11:32:04;23.40;99.90
44573;DHT22;31762;45.420;10.072;2022-10-31T11:37:21;24.00;99.90
44573;DHT22;31762;45.420;10.072;2022-10-31T11:42:27;24.00;99.90
44573;DHT22;31762;45.420;10.072;2022-10-31T11:47:31;24.20;99.90
44573;DHT22;31762;45.420;10.072;2022-10-31T11:52:33;23.60;99.90
44573;DHT22;31762;45.420;10.072;2022-10-31T11:57:46;24.20;99.90
44573;DHT22;31762;45.420;10.072;2022-10-31T12:02:49;24.60;99.90
44573;DHT22;31762;45.420;10.072;2022-10-31T12:07:52;24.20;99.90
44573;DHT22;31762;45.420;10.072;2022-10-31T12:13:09;24.20;99.90
44573;DHT22;31762;45.420;10.072;2022-10-31T13:01:09;24.10;99.90
44573;DHT22;31762;45.420;10.072;2022-10-31T13:06:40;24.20;99.90
44573;DHT22;31762;45.420;10.072;2022-10-31T13:11:50;24.00;99.90
44573;DHT22;31762;45.420;10.072;2022-10-31T13:16:55;24.10;99.90
44573;DHT22;31762;45.420;10.072;2022-10-31T13:22:15;24.50;99.90
44573;DHT22;31762;45.420;10.072;2022-10-31T13:37:59;24.40;99.90
44573;DHT22;31762;45.420;10.072;2022-10-31T13:43:28;24.10;99.90
44573;DHT22;31762;45.420;10.072;2022-10-31T13:53:45;23.40;99.90
44573;DHT22;31762;45.420;10.072;2022-10-31T14:04:18;23.90;99.90
44573;DHT22;31762;45.420;10.072;2022-10-31T14:09:36;23.80;99.90
44573;DHT22;31762;45.420;10.072;2022-10-31T14:15:02;23.90;99.90
44573;DHT22;31762;45.420;10.072;2022-10-31T14:25:32;23.70;99.90
44573;DHT22;31762;45.420;10.072;2022-10-31T14:30:36;23.70;99.90
44573;DHT22;31762;45.420;10.072;2022-10-31T14:51:45;23.30;99.90
44573;DHT22;31762;45.420;10.072;2022-10-31T14:56:53;22.90;99.90
44573;DHT22;31762;45.420;10.072;2022-10-31T15:02:01;22.70;99.90
44573;DHT22;31762;45.420;10.072;2022-10-31T15:07:22;22.40;99.90
44573;DHT22;31762;45.420;10.072;2022-10-31T15:12:30;22.20;99.90
44573;DHT22;31762;45.420;10.072;2022-10-31T15:17:32;22.10;99.90
44573;DHT22;31762;45.420;10.072;2022-10-31T15:22:34;21.80;99.90
44573;DHT22;31762;45.420;10.072;2022-10-31T15:27:40;21.60;99.90
44573;DHT22;31762;45.420;10.072;2022-10-31T15:32:44;21.40;99.90
44573;DHT22;31762;45.420;10.072;2022-10-31T15:37:58;21.10;99.90
44573;DHT22;31762;45.420;10.072;2022-10-31T15:43:03;21.00;99.90
44573;DHT22;31762;45.420;10.072;2022-10-31T15:48:24;20.70;99.90
44573;DHT22;31762;45.420;10.072;2022-10-31T15:53:33;20.40;99.90
44573;DHT22;31762;45.420;10.072;2022-10-31T15:58:44;20.20;99.90
44573;DHT22;31762;45.420;10.072;2022-10-31T16:09:27;19.80;99.90
44573;DHT22;31762;45.420;10.072;2022-10-31T16:14:33;19.70;99.90
44573;DHT22;31762;45.420;10.072;2022-10-31T16:20:01;19.60;99.90
44573;DHT22;31762;45.420;10.072;2022-10-31T16:30:39;19.20;99.90
44573;DHT22;31762;45.420;10.072;2022-10-31T16:35:49;19.10;99.90
44573;DHT22;31762;45.420;10.072;2022-10-31T16:40:56;18.90;99.90
44573;DHT22;31762;45.420;10.072;2022-10-31T16:45:58;18.90;99.90
44573;DHT22;31762;45.420;10.072;2022-10-31T16:51:00;18.70;99.90
44573;DHT22;31762;45.420;10.072;2022-10-31T16:56:03;18.70;99.90
44573;DHT22;31762;45.420;10.072;2022-10-31T17:01:06;18.60;99.90
44573;DHT22;31762;45.420;10.072;2022-10-31T17:06:17;18.50;99.90
44573;DHT22;31762;45.420;10.072;2022-10-31T17:11:22;18.50;99.90
44573;DHT22;31762;45.420;10.072;2022-10-31T17:16:24;18.40;99.90
44573;DHT22;31762;45.420;10.072;2022-10-31T17:21:25;18.30;99.90
44573;DHT22;31762;45.420;10.072;2022-10-31T17:26:27;18.50;99.90
44573;DHT22;31762;45.420;10.072;2022-10-31T17:31:31;18.10;99.90
44573;DHT22;31762;45.420;10.072;2022-10-31T17:36:34;17.90;99.90
44573;DHT22;31762;45.420;10.072;2022-10-31T17:41:36;18.00;99.90
44573;DHT22;31762;45.420;10.072;2022-10-31T17:46:38;17.90;99.90
44573;DHT22;31762;45.420;10.072;2022-10-31T17:51:39;17.60;99.90
44573;DHT22;31762;45.420;10.072;2022-10-31T17:56:41;17.70;99.90
44573;DHT22;31762;45.420;10.072;2022-10-31T18:01:43;17.70;99.90
44573;DHT22;31762;45.420;10.072;2022-10-31T18:06:44;17.70;99.90
44573;DHT22;31762;45.420;10.072;2022-10-31T18:11:46;17.60;99.90
44573;DHT22;31762;45.420;10.072;2022-10-31T18:16:48;17.40;99.90
44573;DHT22;31762;45.420;10.072;2022-10-31T18:21:50;17.70;99.90
44573;DHT22;31762;45.420;10.072;2022-10-31T18:26:54;17.60;99.90
44573;DHT22;31762;45.420;10.072;2022-10-31T18:31:55;17.40;99.90
44573;DHT22;31762;45.420;10.072;2022-10-31T18:36:57;17.40;99.90
44573;DHT22;31762;45.420;10.072;2022-10-31T18:41:59;17.10;99.90
44573;DHT22;31762;45.420;10.072;2022-10-31T18:47:01;17.20;99.90
44573;DHT22;31762;45.420;10.072;2022-10-31T18:52:03;17.00;99.90
44573;DHT22;31762;45.420;10.072;2022-10-31T18:57:05;17.30;99.90
44573;DHT22;31762;45.420;10.072;2022-10-31T19:02:10;17.20;99.90
44573;DHT22;31762;45.420;10.072;2022-10-31T19:07:12;16.90;99.90
44573;DHT22;31762;45.420;10.072;2022-10-31T19:12:14;16.90;99.90
44573;DHT22;31762;45.420;10.072;2022-10-31T19:17:16;16.80;99.90
44573;DHT22;31762;45.420;10.072;2022-10-31T19:22:18;16.80;99.90
44573;DHT22;31762;45.420;10.072;2022-10-31T19:27:19;16.70;99.90
44573;DHT22;31762;45.420;10.072;2022-10-31T19:32:21;16.80;99.90
44573;DHT22;31762;45.420;10.072;2022-10-31T19:37:23;16.90;99.90
44573;DHT22;31762;45.420;10.072;2022-10-31T19:42:25;16.90;99.90
44573;DHT22;31762;45.420;10.072;2022-10-31T19:47:26;16.80;99.90
44573;DHT22;31762;45.420;10.072;2022-10-31T19:52:28;16.50;99.90
44573;DHT22;31762;45.420;10.072;2022-10-31T19:57:33;16.70;99.90
44573;DHT22;31762;45.420;10.072;2022-10-31T20:02:55;16.80;99.90
44573;DHT22;31762;45.420;10.072;2022-10-31T20:07:56;16.90;99.90
44573;DHT22;31762;45.420;10.072;2022-10-31T20:12:58;17.10;99.90
44573;DHT22;31762;45.420;10.072;2022-10-31T20:18:00;17.10;99.90
44573;DHT22;31762;45.420;10.072;2022-10-31T20:23:02;16.90;99.90
44573;DHT22;31762;45.420;10.072;2022-10-31T20:28:04;17.10;99.90
44573;DHT22;31762;45.420;10.072;2022-10-31T20:33:06;17.10;99.90
44573;DHT22;31762;45.420;10.072;2022-10-31T20:38:08;16.90;99.90
44573;DHT22;31762;45.420;10.072;2022-10-31T20:43:10;16.80;99.90
44573;DHT22;31762;45.420;10.072;2022-10-31T20:48:12;16.70;99.90
44573;DHT22;31762;45.420;10.072;2022-10-31T20:53:14;16.70;99.90
44573;DHT22;31762;45.420;10.072;2022-10-31T20:58:16;16.70;99.90
44573;DHT22;31762;45.420;10.072;2022-10-31T21:03:18;16.50;99.90
44573;DHT22;31762;45.420;10.072;2022-10-31T21:08:20;16.50;99.90
44573;DHT22;31762;45.420;10.072;2022-10-31T21:13:22;16.40;99.90
44573;DHT22;31762;45.420;10.072;2022-10-31T21:18:24;16.20;99.90
44573;DHT22;31762;45.420;10.072;2022-10-31T21:23:25;16.30;99.90
44573;DHT22;31762;45.420;10.072;2022-10-31T21:28:27;16.30;99.90
44573;DHT22;31762;45.420;10.072;2022-10-31T21:33:29;16.20;99.90
44573;DHT22;31762;45.420;10.072;2022-10-31T21:38:31;16.30;99.90
44573;DHT22;31762;45.420;10.072;2022-10-31T21:43:38;16.40;99.90
44573;DHT22;31762;45.420;10.072;2022-10-31T21:48:41;16.30;99.90
44573;DHT22;31762;45.420;10.072;2022-10-31T21:53:43;16.10;99.90
44573;DHT22;31762;45.420;10.072;2022-10-31T21:58:45;16.00;99.90
44573;DHT22;31762;45.420;10.072;2022-10-31T22:03:47;16.00;99.90
44573;DHT22;31762;45.420;10.072;2022-10-31T22:08:49;16.00;99.90
44573;DHT22;31762;45.420;10.072;2022-10-31T22:13:50;16.00;99.90
44573;DHT22;31762;45.420;10.072;2022-10-31T22:18:54;15.90;99.90
44573;DHT22;31762;45.420;10.072;2022-10-31T22:23:58;16.00;99.90
44573;DHT22;31762;45.420;10.072;2022-10-31T22:29:09;15.60;99.90
44573;DHT22;31762;45.420;10.072;2022-10-31T22:34:12;15.50;99.90
44573;DHT22;31762;45.420;10.072;2022-10-31T22:39:14;15.60;99.90
44573;DHT22;31762;45.420;10.072;2022-10-31T22:44:16;15.40;99.90
44573;DHT22;31762;45.420;10.072;2022-10-31T22:49:17;15.50;99.90
44573;DHT22;31762;45.420;10.072;2022-10-31T22:54:19;15.50;99.90
44573;DHT22;31762;45.420;10.072;2022-10-31T22:59:21;15.70;99.90
44573;DHT22;31762;45.420;10.072;2022-10-31T23:04:23;15.70;99.90
44573;DHT22;31762;45.420;10.072;2022-10-31T23:09:24;15.50;99.90
44573;DHT22;31762;45.420;10.072;2022-10-31T23:14:26;15.30;99.90
44573;DHT22;31762;45.420;10.072;2022-10-31T23:19:29;15.80;99.90
44573;DHT22;31762;45.420;10.072;2022-10-31T23:29:37;15.10;99.90
44573;DHT22;31762;45.420;10.072;2022-10-31T23:34:39;15.00;99.90
44573;DHT22;31762;45.420;10.072;2022-10-31T23:39:40;14.90;99.90
44573;DHT22;31762;45.420;10.072;2022-10-31T23:44:42;15.10;99.90
44573;DHT22;31762;45.420;10.072;2022-10-31T23:49:44;15.10;99.90
44573;DHT22;31762;45.420;10.072;2022-10-31T23:54:46;15.30;99.90
44573;DHT22;31762;45.420;10.072;2022-10-31T23:59:47;15.00;99.90
